Shelton, Washington
Current Conditions -  °F | °C
As of 9:08 AM on Saturday 20 Dec 2014 (Local Time) from KSHN Reporting Station
Light Rain Light Rain  
Wind Chill: 41°   Ceiling: 300
Heat Index: 45°   Visibility: 2.5mi
Dew Point: 43°   Wind: 7mph
Humidity: 93%   Direction: 350°N
Pressure: 29.58"   Gusts: NA
Location:  47.21°N, 123.1°W
Report Text: KSHN 201708Z AUTO 35006KT 2 1/2SM -RA BR OVC003 07/06 A2958 RMK AO2 RAB05 P0000 T00720061
Loading
Personal Weather Stations






























Interactive Weather Map New forecast layout! Learn more

10-Day Weather Forecast

Advertisements
Track Severe Weather on mobile